sensor_id;sensor_type;location;lat;lon;timestamp;temperature;humidity
5850;DHT22;2951;47.712;9.400;2023-01-15T00:00:19;8.00;99.90
5850;DHT22;2951;47.712;9.400;2023-01-15T00:02:46;7.90;99.90
5850;DHT22;2951;47.712;9.400;2023-01-15T00:05:13;8.00;99.90
5850;DHT22;2951;47.712;9.400;2023-01-15T00:07:39;7.90;99.90
5850;DHT22;2951;47.712;9.400;2023-01-15T00:10:06;7.90;99.90
5850;DHT22;2951;47.712;9.400;2023-01-15T00:12:33;8.00;99.90
5850;DHT22;2951;47.712;9.400;2023-01-15T00:14:59;8.00;99.90
5850;DHT22;2951;47.712;9.400;2023-01-15T00:17:26;7.90;99.90
5850;DHT22;2951;47.712;9.400;2023-01-15T00:19:53;7.80;99.90
5850;DHT22;2951;47.712;9.400;2023-01-15T00:22:20;7.70;99.90
5850;DHT22;2951;47.712;9.400;2023-01-15T00:24:46;7.70;99.90
5850;DHT22;2951;47.712;9.400;2023-01-15T00:27:31;7.60;99.90
5850;DHT22;2951;47.712;9.400;2023-01-15T00:30:05;7.60;99.90
5850;DHT22;2951;47.712;9.400;2023-01-15T00:32:32;7.70;99.90
5850;DHT22;2951;47.712;9.400;2023-01-15T00:34:59;8.10;99.90
5850;DHT22;2951;47.712;9.400;2023-01-15T00:37:25;8.40;99.90
5850;DHT22;2951;47.712;9.400;2023-01-15T00:39:52;8.60;99.90
5850;DHT22;2951;47.712;9.400;2023-01-15T00:42:19;8.80;99.90
5850;DHT22;2951;47.712;9.400;2023-01-15T00:44:45;9.00;99.90
5850;DHT22;2951;47.712;9.400;2023-01-15T00:47:12;9.10;99.90
5850;DHT22;2951;47.712;9.400;2023-01-15T00:49:40;9.10;99.90
5850;DHT22;2951;47.712;9.400;2023-01-15T00:52:07;9.20;99.90
5850;DHT22;2951;47.712;9.400;2023-01-15T00:54:34;9.20;99.90
5850;DHT22;2951;47.712;9.400;2023-01-15T00:57:00;9.30;99.90
5850;DHT22;2951;47.712;9.400;2023-01-15T00:59:27;9.30;99.90
5850;DHT22;2951;47.712;9.400;2023-01-15T01:01:53;9.40;99.90
5850;DHT22;2951;47.712;9.400;2023-01-15T01:04:20;9.50;99.90
5850;DHT22;2951;47.712;9.400;2023-01-15T01:06:47;9.60;99.90
5850;DHT22;2951;47.712;9.400;2023-01-15T01:09:14;9.60;99.90
5850;DHT22;2951;47.712;9.400;2023-01-15T01:11:41;9.60;99.90
5850;DHT22;2951;47.712;9.400;2023-01-15T01:14:08;9.60;99.90
5850;DHT22;2951;47.712;9.400;2023-01-15T01:16:36;9.70;99.90
5850;DHT22;2951;47.712;9.400;2023-01-15T01:19:05;9.70;99.90
5850;DHT22;2951;47.712;9.400;2023-01-15T01:21:32;9.70;99.90
5850;DHT22;2951;47.712;9.400;2023-01-15T01:23:59;9.70;99.90
5850;DHT22;2951;47.712;9.400;2023-01-15T01:26:26;9.70;99.90
5850;DHT22;2951;47.712;9.400;2023-01-15T01:28:55;9.70;99.90
5850;DHT22;2951;47.712;9.400;2023-01-15T01:31:22;9.70;99.90
5850;DHT22;2951;47.712;9.400;2023-01-15T01:33:49;9.70;99.90
5850;DHT22;2951;47.712;9.400;2023-01-15T01:36:16;9.60;99.90
5850;DHT22;2951;47.712;9.400;2023-01-15T01:38:45;9.70;99.90
5850;DHT22;2951;47.712;9.400;2023-01-15T01:41:15;9.60;99.90
5850;DHT22;2951;47.712;9.400;2023-01-15T01:46:28;9.60;99.90
5850;DHT22;2951;47.712;9.400;2023-01-15T01:48:59;9.60;99.90
5850;DHT22;2951;47.712;9.400;2023-01-15T01:51:28;9.60;99.90
5850;DHT22;2951;47.712;9.400;2023-01-15T01:53:55;9.60;99.90
5850;DHT22;2951;47.712;9.400;2023-01-15T01:56:23;9.60;99.90
5850;DHT22;2951;47.712;9.400;2023-01-15T01:58:51;9.50;99.90
5850;DHT22;2951;47.712;9.400;2023-01-15T02:01:18;9.50;99.90
5850;DHT22;2951;47.712;9.400;2023-01-15T02:03:46;9.50;99.90
5850;DHT22;2951;47.712;9.400;2023-01-15T02:06:12;9.50;99.90
5850;DHT22;2951;47.712;9.400;2023-01-15T02:08:39;9.50;99.90
5850;DHT22;2951;47.712;9.400;2023-01-15T02:11:07;9.40;99.90
5850;DHT22;2951;47.712;9.400;2023-01-15T02:13:38;9.40;99.90
5850;DHT22;2951;47.712;9.400;2023-01-15T02:16:07;9.40;99.90
5850;DHT22;2951;47.712;9.400;2023-01-15T02:21:05;9.40;99.90
5850;DHT22;2951;47.712;9.400;2023-01-15T02:23:51;9.40;99.90
5850;DHT22;2951;47.712;9.400;2023-01-15T02:28:48;9.30;99.90
5850;DHT22;2951;47.712;9.400;2023-01-15T02:31:26;9.10;99.90
5850;DHT22;2951;47.712;9.400;2023-01-15T02:36:21;9.00;99.90
5850;DHT22;2951;47.712;9.400;2023-01-15T02:38:49;9.00;99.90
5850;DHT22;2951;47.712;9.400;2023-01-15T02:41:17;9.00;99.90
5850;DHT22;2951;47.712;9.400;2023-01-15T02:43:47;9.10;99.90
5850;DHT22;2951;47.712;9.400;2023-01-15T02:46:15;9.10;99.90
5850;DHT22;2951;47.712;9.400;2023-01-15T02:48:43;9.10;99.90
5850;DHT22;2951;47.712;9.400;2023-01-15T02:51:13;9.00;99.90
5850;DHT22;2951;47.712;9.400;2023-01-15T02:53:40;9.10;99.90
5850;DHT22;2951;47.712;9.400;2023-01-15T02:56:10;9.10;99.90
5850;DHT22;2951;47.712;9.400;2023-01-15T02:58:38;9.20;99.90
5850;DHT22;2951;47.712;9.400;2023-01-15T03:01:11;9.20;99.90
5850;DHT22;2951;47.712;9.400;2023-01-15T03:06:13;9.20;99.90
5850;DHT22;2951;47.712;9.400;2023-01-15T03:08:41;9.20;99.90
5850;DHT22;2951;47.712;9.400;2023-01-15T03:11:09;9.20;99.90
5850;DHT22;2951;47.712;9.400;2023-01-15T03:16:35;9.10;99.90
5850;DHT22;2951;47.712;9.400;2023-01-15T03:26:56;9.10;99.90
5850;DHT22;2951;47.712;9.400;2023-01-15T03:29:23;9.10;99.90
5850;DHT22;2951;47.712;9.400;2023-01-15T03:31:51;9.10;99.90
5850;DHT22;2951;47.712;9.400;2023-01-15T03:34:18;9.20;99.90
5850;DHT22;2951;47.712;9.400;2023-01-15T03:36:44;9.20;99.90
5850;DHT22;2951;47.712;9.400;2023-01-15T03:39:11;9.10;99.90
5850;DHT22;2951;47.712;9.400;2023-01-15T03:44:21;9.10;99.90
5850;DHT22;2951;47.712;9.400;2023-01-15T03:46:56;9.10;99.90
5850;DHT22;2951;47.712;9.400;2023-01-15T03:49:32;9.10;99.90
5850;DHT22;2951;47.712;9.400;2023-01-15T03:54:49;9.00;99.90
5850;DHT22;2951;47.712;9.400;2023-01-15T04:00:27;8.90;99.90
5850;DHT22;2951;47.712;9.400;2023-01-15T04:02:54;8.90;99.90
5850;DHT22;2951;47.712;9.400;2023-01-15T04:05:22;8.90;99.90
5850;DHT22;2951;47.712;9.400;2023-01-15T04:07:49;8.90;99.90
5850;DHT22;2951;47.712;9.400;2023-01-15T04:10:17;8.90;99.90
5850;DHT22;2951;47.712;9.400;2023-01-15T04:12:43;8.80;99.90
5850;DHT22;2951;47.712;9.400;2023-01-15T04:15:11;8.80;99.90
5850;DHT22;2951;47.712;9.400;2023-01-15T04:17:38;8.80;99.90
5850;DHT22;2951;47.712;9.400;2023-01-15T04:20:05;8.80;99.90
5850;DHT22;2951;47.712;9.400;2023-01-15T04:22:32;8.80;99.90
5850;DHT22;2951;47.712;9.400;2023-01-15T04:24:58;8.70;99.90
5850;DHT22;2951;47.712;9.400;2023-01-15T04:27:25;8.70;99.90
5850;DHT22;2951;47.712;9.400;2023-01-15T04:29:52;8.70;99.90
5850;DHT22;2951;47.712;9.400;2023-01-15T04:32:19;8.70;99.90
5850;DHT22;2951;47.712;9.400;2023-01-15T04:34:45;8.70;99.90
5850;DHT22;2951;47.712;9.400;2023-01-15T04:37:12;8.70;99.90
5850;DHT22;2951;47.712;9.400;2023-01-15T04:39:39;8.80;99.90
5850;DHT22;2951;47.712;9.400;2023-01-15T04:42:07;8.90;99.90
5850;DHT22;2951;47.712;9.400;2023-01-15T04:44:53;9.00;99.90
5850;DHT22;2951;47.712;9.400;2023-01-15T04:47:20;9.00;99.90
5850;DHT22;2951;47.712;9.400;2023-01-15T04:49:47;9.00;99.90
5850;DHT22;2951;47.712;9.400;2023-01-15T04:52:13;9.00;99.90
5850;DHT22;2951;47.712;9.400;2023-01-15T04:54:40;8.90;99.90
5850;DHT22;2951;47.712;9.400;2023-01-15T04:57:07;9.10;99.90
5850;DHT22;2951;47.712;9.400;2023-01-15T04:59:33;9.00;99.90
5850;DHT22;2951;47.712;9.400;2023-01-15T05:02:00;9.00;99.90
5850;DHT22;2951;47.712;9.400;2023-01-15T05:04:32;9.00;99.90
5850;DHT22;2951;47.712;9.400;2023-01-15T05:06:59;8.90;99.90
5850;DHT22;2951;47.712;9.400;2023-01-15T05:09:26;8.80;99.90
5850;DHT22;2951;47.712;9.400;2023-01-15T05:11:53;8.90;99.90
5850;DHT22;2951;47.712;9.400;2023-01-15T05:14:19;8.70;99.90
5850;DHT22;2951;47.712;9.400;2023-01-15T05:16:46;8.70;99.90
5850;DHT22;2951;47.712;9.400;2023-01-15T05:19:12;8.70;99.90
5850;DHT22;2951;47.712;9.400;2023-01-15T05:21:40;8.60;99.90
5850;DHT22;2951;47.712;9.400;2023-01-15T05:24:07;8.60;99.90
5850;DHT22;2951;47.712;9.400;2023-01-15T05:26:34;8.50;99.90
5850;DHT22;2951;47.712;9.400;2023-01-15T05:29:01;8.50;99.90
5850;DHT22;2951;47.712;9.400;2023-01-15T05:31:28;8.50;99.90
5850;DHT22;2951;47.712;9.400;2023-01-15T05:33:55;8.50;99.90
5850;DHT22;2951;47.712;9.400;2023-01-15T05:36:23;8.40;99.90
5850;DHT22;2951;47.712;9.400;2023-01-15T05:38:50;8.40;99.90
5850;DHT22;2951;47.712;9.400;2023-01-15T05:41:18;8.40;99.90
5850;DHT22;2951;47.712;9.400;2023-01-15T05:44:08;8.40;99.90
5850;DHT22;2951;47.712;9.400;2023-01-15T05:46:36;8.40;99.90
5850;DHT22;2951;47.712;9.400;2023-01-15T05:49:04;8.40;99.90
5850;DHT22;2951;47.712;9.400;2023-01-15T05:51:31;8.40;99.90
5850;DHT22;2951;47.712;9.400;2023-01-15T05:53:57;8.50;99.90
5850;DHT22;2951;47.712;9.400;2023-01-15T05:56:24;8.50;99.90
5850;DHT22;2951;47.712;9.400;2023-01-15T05:58:51;8.50;99.90
5850;DHT22;2951;47.712;9.400;2023-01-15T06:01:17;8.60;99.90
5850;DHT22;2951;47.712;9.400;2023-01-15T06:03:44;8.70;99.90
5850;DHT22;2951;47.712;9.400;2023-01-15T06:06:12;8.70;99.90
5850;DHT22;2951;47.712;9.400;2023-01-15T06:08:39;8.70;99.90
5850;DHT22;2951;47.712;9.400;2023-01-15T06:11:06;8.60;99.90
5850;DHT22;2951;47.712;9.400;2023-01-15T06:13:32;8.50;99.90
5850;DHT22;2951;47.712;9.400;2023-01-15T06:16:00;8.50;99.90
5850;DHT22;2951;47.712;9.400;2023-01-15T06:18:27;8.50;99.90
5850;DHT22;2951;47.712;9.400;2023-01-15T06:20:53;8.50;99.90
5850;DHT22;2951;47.712;9.400;2023-01-15T06:23:20;8.50;99.90
5850;DHT22;2951;47.712;9.400;2023-01-15T06:25:47;8.50;99.90
5850;DHT22;2951;47.712;9.400;2023-01-15T06:28:13;8.40;99.90
5850;DHT22;2951;47.712;9.400;2023-01-15T06:30:40;8.30;99.90
5850;DHT22;2951;47.712;9.400;2023-01-15T06:33:06;8.40;99.90
5850;DHT22;2951;47.712;9.400;2023-01-15T06:35:33;8.30;99.90
5850;DHT22;2951;47.712;9.400;2023-01-15T06:38:00;8.20;99.90
5850;DHT22;2951;47.712;9.400;2023-01-15T06:40:27;8.20;99.90
5850;DHT22;2951;47.712;9.400;2023-01-15T06:42:56;8.10;99.90
5850;DHT22;2951;47.712;9.400;2023-01-15T06:45:41;8.10;99.90
5850;DHT22;2951;47.712;9.400;2023-01-15T06:48:27;8.10;99.90
5850;DHT22;2951;47.712;9.400;2023-01-15T06:50:53;8.00;99.90
5850;DHT22;2951;47.712;9.400;2023-01-15T06:53:20;8.00;99.90
5850;DHT22;2951;47.712;9.400;2023-01-15T06:55:47;8.00;99.90
5850;DHT22;2951;47.712;9.400;2023-01-15T06:58:13;8.00;99.90
5850;DHT22;2951;47.712;9.400;2023-01-15T07:00:40;7.90;99.90
5850;DHT22;2951;47.712;9.400;2023-01-15T07:03:11;7.90;99.90
5850;DHT22;2951;47.712;9.400;2023-01-15T07:05:39;7.90;99.90
5850;DHT22;2951;47.712;9.400;2023-01-15T07:08:06;7.90;99.90
5850;DHT22;2951;47.712;9.400;2023-01-15T07:10:33;7.90;99.90
5850;DHT22;2951;47.712;9.400;2023-01-15T07:13:00;7.90;99.90
5850;DHT22;2951;47.712;9.400;2023-01-15T07:15:27;7.90;99.90
5850;DHT22;2951;47.712;9.400;2023-01-15T07:17:55;7.90;99.90
5850;DHT22;2951;47.712;9.400;2023-01-15T07:20:21;7.90;99.90
5850;DHT22;2951;47.712;9.400;2023-01-15T07:22:49;8.00;99.90
5850;DHT22;2951;47.712;9.400;2023-01-15T07:25:15;8.00;99.90
5850;DHT22;2951;47.712;9.400;2023-01-15T07:27:42;8.00;99.90
5850;DHT22;2951;47.712;9.400;2023-01-15T07:30:09;8.00;99.90
5850;DHT22;2951;47.712;9.400;2023-01-15T07:32:36;8.00;99.90
5850;DHT22;2951;47.712;9.400;2023-01-15T07:35:02;8.10;99.90
5850;DHT22;2951;47.712;9.400;2023-01-15T07:37:29;8.10;99.90
5850;DHT22;2951;47.712;9.400;2023-01-15T07:39:56;8.10;99.90
5850;DHT22;2951;47.712;9.400;2023-01-15T07:42:22;8.10;99.90
5850;DHT22;2951;47.712;9.400;2023-01-15T07:45:08;8.10;99.90
5850;DHT22;2951;47.712;9.400;2023-01-15T07:47:53;8.10;99.90
5850;DHT22;2951;47.712;9.400;2023-01-15T07:50:38;8.10;99.90
5850;DHT22;2951;47.712;9.400;2023-01-15T07:53:05;8.10;99.90
5850;DHT22;2951;47.712;9.400;2023-01-15T07:55:32;8.10;99.90
5850;DHT22;2951;47.712;9.400;2023-01-15T07:58:01;8.20;99.90
5850;DHT22;2951;47.712;9.400;2023-01-15T08:00:27;8.10;99.90
5850;DHT22;2951;47.712;9.400;2023-01-15T08:02:54;8.20;99.90
5850;DHT22;2951;47.712;9.400;2023-01-15T08:05:20;8.10;99.90
5850;DHT22;2951;47.712;9.400;2023-01-15T08:07:47;8.10;99.90
5850;DHT22;2951;47.712;9.400;2023-01-15T08:10:15;8.20;99.90
5850;DHT22;2951;47.712;9.400;2023-01-15T08:12:42;8.20;99.90
5850;DHT22;2951;47.712;9.400;2023-01-15T08:15:28;8.20;99.90
5850;DHT22;2951;47.712;9.400;2023-01-15T08:17:57;8.30;99.90
5850;DHT22;2951;47.712;9.400;2023-01-15T08:20:24;8.30;99.90
5850;DHT22;2951;47.712;9.400;2023-01-15T08:22:51;8.30;99.90
5850;DHT22;2951;47.712;9.400;2023-01-15T08:25:19;8.30;99.90
5850;DHT22;2951;47.712;9.400;2023-01-15T08:27:46;8.20;99.90
5850;DHT22;2951;47.712;9.400;2023-01-15T08:30:16;8.30;99.90
5850;DHT22;2951;47.712;9.400;2023-01-15T08:32:43;8.40;99.90
5850;DHT22;2951;47.712;9.400;2023-01-15T08:35:10;8.60;99.90
5850;DHT22;2951;47.712;9.400;2023-01-15T08:37:41;8.70;99.90
5850;DHT22;2951;47.712;9.400;2023-01-15T08:40:08;8.80;99.90
5850;DHT22;2951;47.712;9.400;2023-01-15T08:42:35;8.90;99.90
5850;DHT22;2951;47.712;9.400;2023-01-15T08:45:02;9.00;99.90
5850;DHT22;2951;47.712;9.400;2023-01-15T08:47:29;9.10;99.90
5850;DHT22;2951;47.712;9.400;2023-01-15T08:49:57;9.40;99.90
5850;DHT22;2951;47.712;9.400;2023-01-15T08:52:24;9.50;99.90
5850;DHT22;2951;47.712;9.400;2023-01-15T08:54:51;9.60;99.90
5850;DHT22;2951;47.712;9.400;2023-01-15T08:57:17;9.70;99.90
5850;DHT22;2951;47.712;9.400;2023-01-15T08:59:45;9.70;99.90
5850;DHT22;2951;47.712;9.400;2023-01-15T09:02:12;9.80;99.90
5850;DHT22;2951;47.712;9.400;2023-01-15T09:04:40;10.10;99.90
5850;DHT22;2951;47.712;9.400;2023-01-15T09:07:06;10.10;99.90
5850;DHT22;2951;47.712;9.400;2023-01-15T09:09:33;10.20;99.90
5850;DHT22;2951;47.712;9.400;2023-01-15T09:12:00;10.10;99.90
5850;DHT22;2951;47.712;9.400;2023-01-15T09:14:26;10.00;99.90
5850;DHT22;2951;47.712;9.400;2023-01-15T09:17:13;9.90;99.90
5850;DHT22;2951;47.712;9.400;2023-01-15T09:19:40;9.80;99.90
5850;DHT22;2951;47.712;9.400;2023-01-15T09:22:06;9.70;99.90
5850;DHT22;2951;47.712;9.400;2023-01-15T09:24:33;9.60;99.90
5850;DHT22;2951;47.712;9.400;2023-01-15T09:27:00;9.60;99.90
5850;DHT22;2951;47.712;9.400;2023-01-15T09:29:26;9.50;99.90
5850;DHT22;2951;47.712;9.400;2023-01-15T09:31:53;9.50;99.90
5850;DHT22;2951;47.712;9.400;2023-01-15T09:34:19;9.40;99.90
5850;DHT22;2951;47.712;9.400;2023-01-15T09:36:46;9.40;99.90
5850;DHT22;2951;47.712;9.400;2023-01-15T09:39:13;9.30;99.90
5850;DHT22;2951;47.712;9.400;2023-01-15T09:47:26;9.30;99.90
5850;DHT22;2951;47.712;9.400;2023-01-15T09:55:20;7.80;99.90
5850;DHT22;2951;47.712;9.400;2023-01-15T09:57:49;7.50;99.90
5850;DHT22;2951;47.712;9.400;2023-01-15T10:00:17;7.40;99.90
5850;DHT22;2951;47.712;9.400;2023-01-15T10:02:58;7.20;99.90
5850;DHT22;2951;47.712;9.400;2023-01-15T10:05:29;7.10;99.90
5850;DHT22;2951;47.712;9.400;2023-01-15T10:08:05;7.00;99.90
5850;DHT22;2951;47.712;9.400;2023-01-15T10:10:57;7.00;99.90
5850;DHT22;2951;47.712;9.400;2023-01-15T10:13:26;7.00;99.90
5850;DHT22;2951;47.712;9.400;2023-01-15T10:15:55;6.90;99.90
5850;DHT22;2951;47.712;9.400;2023-01-15T10:18:24;6.90;99.90
5850;DHT22;2951;47.712;9.400;2023-01-15T10:26:28;6.80;99.90
5850;DHT22;2951;47.712;9.400;2023-01-15T10:28:57;6.70;99.90
5850;DHT22;2951;47.712;9.400;2023-01-15T10:34:20;6.70;99.90
5850;DHT22;2951;47.712;9.400;2023-01-15T10:36:55;6.60;99.90
5850;DHT22;2951;47.712;9.400;2023-01-15T10:45:03;6.50;99.90
5850;DHT22;2951;47.712;9.400;2023-01-15T10:47:35;6.60;99.90
5850;DHT22;2951;47.712;9.400;2023-01-15T10:50:12;6.50;99.90
5850;DHT22;2951;47.712;9.400;2023-01-15T10:52:40;6.50;99.90
5850;DHT22;2951;47.712;9.400;2023-01-15T10:55:16;6.60;99.90
5850;DHT22;2951;47.712;9.400;2023-01-15T11:00:21;6.70;99.90
5850;DHT22;2951;47.712;9.400;2023-01-15T11:02:55;6.70;99.90
5850;DHT22;2951;47.712;9.400;2023-01-15T11:05:25;6.60;99.90
5850;DHT22;2951;47.712;9.400;2023-01-15T11:07:52;6.60;99.90
5850;DHT22;2951;47.712;9.400;2023-01-15T11:10:38;6.60;99.90
5850;DHT22;2951;47.712;9.400;2023-01-15T11:13:20;6.60;99.90
5850;DHT22;2951;47.712;9.400;2023-01-15T11:16:15;6.50;99.90
5850;DHT22;2951;47.712;9.400;2023-01-15T11:19:02;6.50;99.90
5850;DHT22;2951;47.712;9.400;2023-01-15T11:21:47;6.50;99.90
5850;DHT22;2951;47.712;9.400;2023-01-15T11:24:15;6.50;99.90
5850;DHT22;2951;47.712;9.400;2023-01-15T11:26:52;6.20;99.90
5850;DHT22;2951;47.712;9.400;2023-01-15T11:29:31;6.20;99.90
5850;DHT22;2951;47.712;9.400;2023-01-15T11:31:58;5.90;99.90
5850;DHT22;2951;47.712;9.400;2023-01-15T11:34:25;5.80;99.90
5850;DHT22;2951;47.712;9.400;2023-01-15T11:37:02;5.70;99.90
5850;DHT22;2951;47.712;9.400;2023-01-15T11:39:28;5.60;99.90
5850;DHT22;2951;47.712;9.400;2023-01-15T11:41:57;5.60;99.90
5850;DHT22;2951;47.712;9.400;2023-01-15T11:44:49;5.50;99.90
5850;DHT22;2951;47.712;9.400;2023-01-15T11:47:34;5.50;99.90
5850;DHT22;2951;47.712;9.400;2023-01-15T11:50:19;5.40;99.90
5850;DHT22;2951;47.712;9.400;2023-01-15T11:53:05;5.40;99.90
5850;DHT22;2951;47.712;9.400;2023-01-15T11:55:33;5.30;99.90
5850;DHT22;2951;47.712;9.400;2023-01-15T11:58:00;5.30;99.90
5850;DHT22;2951;47.712;9.400;2023-01-15T12:00:28;5.20;99.90
5850;DHT22;2951;47.712;9.400;2023-01-15T12:02:59;5.20;99.90
5850;DHT22;2951;47.712;9.400;2023-01-15T12:05:28;5.10;99.90
5850;DHT22;2951;47.712;9.400;2023-01-15T12:08:00;5.00;99.90
5850;DHT22;2951;47.712;9.400;2023-01-15T12:10:32;5.00;99.90
5850;DHT22;2951;47.712;9.400;2023-01-15T12:14:08;4.90;99.90
5850;DHT22;2951;47.712;9.400;2023-01-15T12:18:52;4.70;99.90
5850;DHT22;2951;47.712;9.400;2023-01-15T12:21:24;4.70;99.90
5850;DHT22;2951;47.712;9.400;2023-01-15T12:26:38;4.60;99.90
5850;DHT22;2951;47.712;9.400;2023-01-15T12:29:18;4.50;99.90
5850;DHT22;2951;47.712;9.400;2023-01-15T12:31:49;4.50;99.90
5850;DHT22;2951;47.712;9.400;2023-01-15T12:34:22;4.50;99.90
5850;DHT22;2951;47.712;9.400;2023-01-15T12:36:50;4.40;99.90
5850;DHT22;2951;47.712;9.400;2023-01-15T12:41:56;4.40;99.90
5850;DHT22;2951;47.712;9.400;2023-01-15T12:44:53;4.40;99.90
5850;DHT22;2951;47.712;9.400;2023-01-15T12:47:27;4.30;99.90
5850;DHT22;2951;47.712;9.400;2023-01-15T12:49:57;4.30;99.90
5850;DHT22;2951;47.712;9.400;2023-01-15T12:52:27;4.30;99.90
5850;DHT22;2951;47.712;9.400;2023-01-15T12:57:32;4.30;99.90
5850;DHT22;2951;47.712;9.400;2023-01-15T13:00:02;4.20;99.90
5850;DHT22;2951;47.712;9.400;2023-01-15T13:10:15;4.20;99.90
5850;DHT22;2951;47.712;9.400;2023-01-15T13:12:43;4.20;99.90
5850;DHT22;2951;47.712;9.400;2023-01-15T13:15:13;4.20;99.90
5850;DHT22;2951;47.712;9.400;2023-01-15T13:18:03;4.20;99.90
5850;DHT22;2951;47.712;9.400;2023-01-15T13:20:38;4.20;99.90
5850;DHT22;2951;47.712;9.400;2023-01-15T13:31:06;4.00;99.90
5850;DHT22;2951;47.712;9.400;2023-01-15T13:33:43;4.00;99.90
5850;DHT22;2951;47.712;9.400;2023-01-15T13:36:13;4.00;99.90
5850;DHT22;2951;47.712;9.400;2023-01-15T13:38:42;4.00;99.90
5850;DHT22;2951;47.712;9.400;2023-01-15T13:41:11;4.00;99.90
5850;DHT22;2951;47.712;9.400;2023-01-15T13:44:03;3.90;99.90
5850;DHT22;2951;47.712;9.400;2023-01-15T13:46:29;4.00;99.90
5850;DHT22;2951;47.712;9.400;2023-01-15T13:48:56;4.00;99.90
5850;DHT22;2951;47.712;9.400;2023-01-15T13:51:32;4.00;99.90
5850;DHT22;2951;47.712;9.400;2023-01-15T13:54:11;4.10;99.90
5850;DHT22;2951;47.712;9.400;2023-01-15T13:56:38;4.10;99.90
5850;DHT22;2951;47.712;9.400;2023-01-15T13:59:06;4.10;99.90
5850;DHT22;2951;47.712;9.400;2023-01-15T14:01:52;4.10;99.90
5850;DHT22;2951;47.712;9.400;2023-01-15T14:04:30;4.10;99.90
5850;DHT22;2951;47.712;9.400;2023-01-15T14:06:58;4.10;99.90
5850;DHT22;2951;47.712;9.400;2023-01-15T14:09:26;4.20;99.90
5850;DHT22;2951;47.712;9.400;2023-01-15T14:24:56;4.30;99.90
5850;DHT22;2951;47.712;9.400;2023-01-15T14:33:06;4.20;99.90
5850;DHT22;2951;47.712;9.400;2023-01-15T14:35:35;4.20;99.90
5850;DHT22;2951;47.712;9.400;2023-01-15T14:38:04;4.20;99.90
5850;DHT22;2951;47.712;9.400;2023-01-15T14:40:32;4.20;99.90
5850;DHT22;2951;47.712;9.400;2023-01-15T14:43:01;4.20;99.90
5850;DHT22;2951;47.712;9.400;2023-01-15T14:45:31;4.20;99.90
5850;DHT22;2951;47.712;9.400;2023-01-15T14:47:59;4.20;99.90
5850;DHT22;2951;47.712;9.400;2023-01-15T14:52:54;4.20;99.90
5850;DHT22;2951;47.712;9.400;2023-01-15T14:55:21;4.20;99.90
5850;DHT22;2951;47.712;9.400;2023-01-15T14:57:51;4.10;99.90
5850;DHT22;2951;47.712;9.400;2023-01-15T15:00:19;4.20;99.90
5850;DHT22;2951;47.712;9.400;2023-01-15T15:02:46;4.20;99.90
5850;DHT22;2951;47.712;9.400;2023-01-15T15:05:17;4.20;99.90
5850;DHT22;2951;47.712;9.400;2023-01-15T15:07:45;4.20;99.90
5850;DHT22;2951;47.712;9.400;2023-01-15T15:10:23;4.20;99.90
5850;DHT22;2951;47.712;9.400;2023-01-15T15:22:58;4.20;99.90
5850;DHT22;2951;47.712;9.400;2023-01-15T15:25:31;4.20;99.90
5850;DHT22;2951;47.712;9.400;2023-01-15T15:28:05;4.30;99.90
5850;DHT22;2951;47.712;9.400;2023-01-15T15:30:34;4.30;99.90
5850;DHT22;2951;47.712;9.400;2023-01-15T15:33:05;4.30;99.90
5850;DHT22;2951;47.712;9.400;2023-01-15T15:35:32;4.30;99.90
5850;DHT22;2951;47.712;9.400;2023-01-15T15:38:01;4.30;99.90
5850;DHT22;2951;47.712;9.400;2023-01-15T15:40:31;4.30;99.90
5850;DHT22;2951;47.712;9.400;2023-01-15T15:43:02;4.40;99.90
5850;DHT22;2951;47.712;9.400;2023-01-15T15:45:52;4.40;99.90
5850;DHT22;2951;47.712;9.400;2023-01-15T15:48:37;4.50;99.90
5850;DHT22;2951;47.712;9.400;2023-01-15T15:54:18;4.40;99.90
5850;DHT22;2951;47.712;9.400;2023-01-15T15:59:33;4.40;99.90
5850;DHT22;2951;47.712;9.400;2023-01-15T16:02:14;4.40;99.90
5850;DHT22;2951;47.712;9.400;2023-01-15T16:04:45;4.30;99.90
5850;DHT22;2951;47.712;9.400;2023-01-15T16:07:12;4.20;99.90
5850;DHT22;2951;47.712;9.400;2023-01-15T16:09:39;4.20;99.90
5850;DHT22;2951;47.712;9.400;2023-01-15T16:12:08;4.20;99.90
5850;DHT22;2951;47.712;9.400;2023-01-15T16:14:37;4.10;99.90
5850;DHT22;2951;47.712;9.400;2023-01-15T16:17:04;4.00;99.90
5850;DHT22;2951;47.712;9.400;2023-01-15T16:19:31;4.00;99.90
5850;DHT22;2951;47.712;9.400;2023-01-15T16:21:58;3.90;99.90
5850;DHT22;2951;47.712;9.400;2023-01-15T16:24:26;3.80;99.90
5850;DHT22;2951;47.712;9.400;2023-01-15T16:26:54;3.90;99.90
5850;DHT22;2951;47.712;9.400;2023-01-15T16:29:24;3.80;99.90
5850;DHT22;2951;47.712;9.400;2023-01-15T16:31:51;3.80;99.90
5850;DHT22;2951;47.712;9.400;2023-01-15T16:34:22;3.70;99.90
5850;DHT22;2951;47.712;9.400;2023-01-15T16:36:49;3.70;99.90
5850;DHT22;2951;47.712;9.400;2023-01-15T16:39:22;3.60;99.90
5850;DHT22;2951;47.712;9.400;2023-01-15T16:41:49;3.60;99.90
5850;DHT22;2951;47.712;9.400;2023-01-15T16:44:34;3.50;99.90
5850;DHT22;2951;47.712;9.400;2023-01-15T16:47:01;3.50;99.90
5850;DHT22;2951;47.712;9.400;2023-01-15T16:49:29;3.50;99.90
5850;DHT22;2951;47.712;9.400;2023-01-15T16:51:57;3.50;99.90
5850;DHT22;2951;47.712;9.400;2023-01-15T16:56:57;3.40;99.90
5850;DHT22;2951;47.712;9.400;2023-01-15T17:01:54;3.40;99.90
5850;DHT22;2951;47.712;9.400;2023-01-15T17:09:49;3.30;99.90
5850;DHT22;2951;47.712;9.400;2023-01-15T17:12:30;3.40;99.90
5850;DHT22;2951;47.712;9.400;2023-01-15T17:15:27;3.30;99.90
5850;DHT22;2951;47.712;9.400;2023-01-15T17:17:50;3.30;99.90
5850;DHT22;2951;47.712;9.400;2023-01-15T17:20:17;3.30;99.90
5850;DHT22;2951;47.712;9.400;2023-01-15T17:22:45;3.30;99.90
5850;DHT22;2951;47.712;9.400;2023-01-15T17:25:20;3.30;99.90
5850;DHT22;2951;47.712;9.400;2023-01-15T17:27:47;3.20;99.90
5850;DHT22;2951;47.712;9.400;2023-01-15T17:30:14;3.20;99.90
5850;DHT22;2951;47.712;9.400;2023-01-15T17:32:40;3.10;99.90
5850;DHT22;2951;47.712;9.400;2023-01-15T17:35:19;3.10;99.90
5850;DHT22;2951;47.712;9.400;2023-01-15T17:37:47;3.10;99.90
5850;DHT22;2951;47.712;9.400;2023-01-15T17:40:14;3.00;99.90
5850;DHT22;2951;47.712;9.400;2023-01-15T17:42:41;3.00;99.90
5850;DHT22;2951;47.712;9.400;2023-01-15T17:45:14;3.10;99.90
5850;DHT22;2951;47.712;9.400;2023-01-15T17:47:42;3.00;99.90
5850;DHT22;2951;47.712;9.400;2023-01-15T17:50:09;3.00;99.90
5850;DHT22;2951;47.712;9.400;2023-01-15T17:52:36;3.00;99.90
5850;DHT22;2951;47.712;9.400;2023-01-15T17:55:03;2.90;99.90
5850;DHT22;2951;47.712;9.400;2023-01-15T17:57:48;2.90;99.90
5850;DHT22;2951;47.712;9.400;2023-01-15T18:00:33;3.10;99.90
5850;DHT22;2951;47.712;9.400;2023-01-15T18:03:19;3.00;99.90
5850;DHT22;2951;47.712;9.400;2023-01-15T18:06:06;3.00;99.90
5850;DHT22;2951;47.712;9.400;2023-01-15T18:08:34;3.00;99.90
5850;DHT22;2951;47.712;9.400;2023-01-15T18:11:01;3.10;99.90
5850;DHT22;2951;47.712;9.400;2023-01-15T18:13:28;3.20;99.90
5850;DHT22;2951;47.712;9.400;2023-01-15T18:15:55;3.10;99.90
5850;DHT22;2951;47.712;9.400;2023-01-15T18:18:22;3.00;99.90
5850;DHT22;2951;47.712;9.400;2023-01-15T18:20:48;3.00;99.90
5850;DHT22;2951;47.712;9.400;2023-01-15T18:23:15;3.00;99.90
5850;DHT22;2951;47.712;9.400;2023-01-15T18:25:42;2.90;99.90
5850;DHT22;2951;47.712;9.400;2023-01-15T18:28:11;2.90;99.90
5850;DHT22;2951;47.712;9.400;2023-01-15T18:30:38;2.90;99.90
5850;DHT22;2951;47.712;9.400;2023-01-15T18:33:05;2.90;99.90
5850;DHT22;2951;47.712;9.400;2023-01-15T18:35:32;2.80;99.90
5850;DHT22;2951;47.712;9.400;2023-01-15T18:37:58;2.80;99.90
5850;DHT22;2951;47.712;9.400;2023-01-15T18:40:25;2.90;99.90
5850;DHT22;2951;47.712;9.400;2023-01-15T18:43:00;3.00;99.90
5850;DHT22;2951;47.712;9.400;2023-01-15T18:45:46;3.00;99.90
5850;DHT22;2951;47.712;9.400;2023-01-15T18:48:32;3.00;99.90